Time;durP1;ratioP1;P1;durP2;ratioP2;P2;SDS_P1;SDS_P2;PMS_P1;PMS_P2;Temp;Humidity;BMP_temperature;BMP_pressure;BME280_temperature;BME280_humidity;BME280_pressure;Samples;Min_cycle;Max_cycle;Signal;HPM_P1;HPM_P2
2023/03/22 00:00:26;;;;;;;12.45;9.73;;;;;;;9.00;100.00;162917.13;5070983;28;20105;-65
2023/03/22 00:02:52;;;;;;;11.57;10.30;;;;;;;9.02;100.00;162922.53;5071782;28;20092;-66
2023/03/22 00:05:17;;;;;;;17.35;10.85;;;;;;;8.96;100.00;162906.34;5070432;28;20040;-66
2023/03/22 00:07:42;;;;;;;24.38;11.82;;;;;;;8.92;100.00;162895.53;5071908;28;20032;-66
2023/03/22 00:10:10;;;;;;;16.55;10.93;;;;;;;8.85;100.00;162879.38;5070303;28;20033;-66
2023/03/22 00:12:35;;;;;;;12.27;9.93;;;;;;;8.80;100.00;162864.53;5072011;28;20032;-66
2023/03/22 00:15:01;;;;;;;11.18;9.95;;;;;;;8.74;100.00;162849.72;5069926;28;20118;-66
2023/03/22 00:17:27;;;;;;;14.18;9.02;;;;;;;8.72;100.00;162845.66;5071234;28;20036;-64
2023/03/22 00:19:53;;;;;;;14.77;12.35;;;;;;;8.75;100.00;162852.38;5069915;28;20044;-62
2023/03/22 00:22:19;;;;;;;17.70;9.73;;;;;;;8.79;100.00;162863.19;5071786;28;20103;-63
2023/03/22 00:24:44;;;;;;;13.40;10.07;;;;;;;8.76;100.00;162855.09;5069154;28;20453;-62
2023/03/22 00:27:09;;;;;;;14.73;10.15;;;;;;;8.67;100.00;162830.84;5071729;28;20029;-63
2023/03/22 00:29:35;;;;;;;12.45;9.85;;;;;;;8.71;100.00;162842.94;5069929;28;20475;-63
2023/03/22 00:32:00;;;;;;;10.77;9.50;;;;;;;8.66;100.00;162828.16;5070690;28;20032;-63
2023/03/22 00:34:30;;;;;;;14.63;9.00;;;;;;;8.66;100.00;162829.47;5069952;28;20131;-62
2023/03/22 00:36:55;;;;;;;14.38;8.95;;;;;;;8.68;100.00;162833.50;5071530;28;20044;-62
2023/03/22 00:39:21;;;;;;;12.35;9.18;;;;;;;8.68;100.00;162833.50;5069686;28;20024;-63
2023/03/22 00:41:46;;;;;;;17.58;10.73;;;;;;;8.65;100.00;162826.78;5071092;28;20032;-63
2023/03/22 00:44:12;;;;;;;19.42;10.25;;;;;;;8.59;100.00;162810.59;5070982;28;20070;-63
2023/03/22 00:46:37;;;;;;;13.95;9.60;;;;;;;8.57;100.00;162806.56;5069283;28;20040;-62
2023/03/22 00:49:02;;;;;;;16.33;9.23;;;;;;;8.52;100.00;162793.09;5071158;28;20039;-63
2023/03/22 00:51:28;;;;;;;14.15;9.27;;;;;;;8.46;100.00;162776.84;5069875;28;20411;-62
2023/03/22 00:53:53;;;;;;;14.05;9.43;;;;;;;8.41;100.00;162763.38;5069868;28;20077;-63
2023/03/22 00:56:21;;;;;;;16.65;10.65;;;;;;;8.40;100.00;162760.69;5069196;28;20040;-63
2023/03/22 00:58:47;;;;;;;13.45;10.95;;;;;;;8.41;100.00;162763.38;5071195;28;20100;-63
2023/03/22 01:01:13;;;;;;;12.30;8.85;;;;;;;8.39;100.00;162757.97;5069294;28;20110;-63
2023/03/22 01:03:39;;;;;;;19.00;10.77;;;;;;;8.36;100.00;162751.25;5071430;28;20020;-63
2023/03/22 01:06:05;;;;;;;18.85;10.40;;;;;;;8.38;100.00;162755.25;5069103;28;20121;-63
2023/03/22 01:08:31;;;;;;;15.38;11.20;;;;;;;8.41;100.00;162763.38;5070639;28;20632;-63
2023/03/22 01:10:57;;;;;;;12.57;9.27;;;;;;;8.35;100.00;162747.22;5069286;28;20458;-63
2023/03/22 01:13:23;;;;;;;19.98;11.13;;;;;;;8.48;100.00;162782.28;5070642;28;20108;-63
2023/03/22 01:15:50;;;;;;;11.90;10.40;;;;;;;8.53;100.00;162795.75;5068598;28;20044;-63
2023/03/22 01:18:15;;;;;;;13.35;11.30;;;;;;;8.49;100.00;162785.00;5070466;28;20049;-63
2023/03/22 01:20:40;;;;;;;14.82;10.60;;;;;;;8.48;100.00;162782.28;5069249;28;20036;-63
2023/03/22 01:23:06;;;;;;;16.98;11.00;;;;;;;8.43;100.00;162768.78;5070620;28;20032;-63
2023/03/22 01:25:31;;;;;;;24.90;12.32;;;;;;;8.46;100.00;162776.84;5069144;28;20044;-63
2023/03/22 01:27:56;;;;;;;16.75;10.05;;;;;;;8.39;100.00;162759.34;5070399;28;20042;-63
2023/03/22 01:30:22;;;;;;;15.32;11.15;;;;;;;8.59;100.00;162810.59;5069268;28;20048;-64
2023/03/22 01:32:47;;;;;;;14.68;10.40;;;;;;;8.62;100.00;162818.72;5070584;28;20028;-63
2023/03/22 01:35:13;;;;;;;17.13;11.00;;;;;;;8.62;100.00;162818.72;5068788;28;20040;-63
2023/03/22 01:37:38;;;;;;;27.02;14.38;;;;;;;8.65;100.00;162825.44;5070278;28;20024;-63
2023/03/22 01:40:04;;;;;;;17.92;10.18;;;;;;;8.67;100.00;162830.84;5068866;28;20045;-63
2023/03/22 01:42:29;;;;;;;17.73;11.38;;;;;;;8.66;100.00;162829.47;5070820;28;20035;-63
2023/03/22 01:45:13;;;;;;;19.83;11.32;;;;;;;8.67;100.00;162832.19;5067069;28;20075;-62
2023/03/22 01:47:42;;;;;;;17.42;9.98;;;;;;;8.63;100.00;162821.41;5070186;28;20029;-63
2023/03/22 01:50:08;;;;;;;12.85;11.07;;;;;;;8.66;100.00;162828.16;5069061;28;20036;-63
2023/03/22 01:52:36;;;;;;;14.80;11.52;;;;;;;8.64;100.00;162822.75;5070197;28;20422;-63
2023/03/22 01:55:03;;;;;;;14.33;10.63;;;;;;;8.66;100.00;162829.47;5068694;28;20048;-63
2023/03/22 01:57:28;;;;;;;16.08;11.07;;;;;;;8.67;100.00;162830.84;5070509;28;20508;-63
2023/03/22 01:59:54;;;;;;;12.38;11.07;;;;;;;8.67;100.00;162830.84;5068535;28;20040;-63
2023/03/22 02:02:20;;;;;;;20.40;9.15;;;;;;;8.66;100.00;162828.16;5069973;28;20043;-65
2023/03/22 02:04:49;;;;;;;16.27;10.77;;;;;;;8.66;100.00;162828.16;5070955;28;20411;-63
2023/03/22 02:07:24;;;;;;;18.85;10.43;;;;;;;8.67;100.00;162830.84;5073921;28;20483;-64
2023/03/22 02:09:51;;;;;;;13.43;9.73;;;;;;;8.60;100.00;162813.31;5072831;28;20040;-64
2023/03/22 02:12:50;;;;;;;13.50;8.77;;;;;;;8.60;100.00;162811.97;5074675;28;20425;-64
2023/03/22 02:15:32;;;;;;;17.42;11.65;;;;;;;8.56;100.00;162803.88;5071110;28;20499;-64
2023/03/22 02:18:32;;;;;;;13.05;9.85;;;;;;;8.54;100.00;162798.47;5073737;28;20352;-63
2023/03/22 02:21:34;;;;;;;20.17;10.27;;;;;;;8.50;100.00;162787.72;5072358;28;20048;-64
2023/03/22 02:24:22;;;;;;;18.55;10.85;;;;;;;8.45;100.00;162774.13;5072952;28;20055;-64
2023/03/22 02:27:06;;;;;;;12.37;8.87;;;;;;;8.41;100.00;162764.69;5072369;28;20066;-64
2023/03/22 02:30:05;;;;;;;11.73;9.20;;;;;;;8.35;100.00;162748.53;5072312;28;20458;-63
2023/03/22 02:33:01;;;;;;;16.67;9.07;;;;;;;8.27;100.00;162726.97;5073864;28;20483;-64
2023/03/22 02:35:51;;;;;;;11.93;9.82;;;;;;;8.24;100.00;162720.25;5072101;28;20040;-64
2023/03/22 02:38:52;;;;;;;13.20;9.63;;;;;;;8.29;100.00;162731.03;5073192;28;20021;-64
2023/03/22 02:41:47;;;;;;;17.77;10.23;;;;;;;8.31;100.00;162737.78;5072490;28;20040;-64
2023/03/22 02:44:44;;;;;;;18.65;10.57;;;;;;;8.33;100.00;162741.81;5073026;28;20383;-64
2023/03/22 02:47:33;;;;;;;13.07;10.23;;;;;;;8.39;100.00;162757.97;5072532;28;20385;-64
2023/03/22 02:50:21;;;;;;;18.63;9.75;;;;;;;8.43;100.00;162768.78;5072281;28;20044;-64
2023/03/22 02:52:58;;;;;;;19.17;13.32;;;;;;;8.47;100.00;162779.59;5072771;28;20425;-63
2023/03/22 02:55:36;;;;;;;15.18;10.50;;;;;;;8.49;100.00;162785.00;5071642;28;20052;-63
2023/03/22 02:58:08;;;;;;;14.00;12.02;;;;;;;8.52;100.00;162793.09;5073266;28;20017;-63
2023/03/22 03:00:35;;;;;;;19.33;10.18;;;;;;;8.59;100.00;162809.28;5071698;28;20403;-63
2023/03/22 03:03:10;;;;;;;16.77;12.82;;;;;;;8.54;100.00;162798.47;5073374;28;20107;-64
2023/03/22 03:05:38;;;;;;;17.67;13.02;;;;;;;8.62;100.00;162817.34;5071652;28;20407;-63
2023/03/22 03:08:05;;;;;;;16.23;13.63;;;;;;;8.69;100.00;162836.22;5072545;28;20545;-63
2023/03/22 03:10:32;;;;;;;17.85;12.70;;;;;;;8.72;100.00;162844.31;5071843;28;20118;-64
2023/03/22 03:12:57;;;;;;;17.30;14.00;;;;;;;8.73;100.00;162847.03;5073144;28;20028;-64
2023/03/22 03:15:22;;;;;;;20.65;12.70;;;;;;;8.81;100.00;162867.22;5070518;28;20072;-63
2023/03/22 03:18:12;;;;;;;18.00;14.75;;;;;;;8.84;100.00;162875.34;5072620;28;20047;-63
2023/03/22 03:20:59;;;;;;;16.75;15.15;;;;;;;8.84;100.00;162876.66;5071107;28;20044;-64
2023/03/22 03:23:51;;;;;;;24.65;14.73;;;;;;;8.83;100.00;162873.94;5072805;28;20027;-64
2023/03/22 03:26:47;;;;;;;17.98;15.25;;;;;;;8.91;100.00;162892.81;5051532;28;20552;-63
2023/03/22 03:29:33;;;;;;;17.13;15.13;;;;;;;8.94;100.00;162900.94;5052474;28;20040;-64
2023/03/22 03:32:10;;;;;;;19.95;15.57;;;;;;;8.98;100.00;162913.09;5050995;28;20500;-63
2023/03/22 03:34:51;;;;;;;19.80;15.40;;;;;;;9.01;100.00;162919.81;5057651;28;20041;-63
2023/03/22 03:37:40;;;;;;;22.08;17.63;;;;;;;9.07;100.00;162936.00;5071995;28;20024;-64
2023/03/22 03:40:09;;;;;;;;;;;;;;;9.07;100.00;162934.66;5070065;28;20044;-63
2023/03/22 03:42:38;;;;;;;20.52;16.55;;;;;;;9.08;100.00;162938.69;5072564;28;20383;-63
2023/03/22 03:45:06;;;;;;;31.60;16.65;;;;;;;9.12;100.00;162948.13;5070335;28;20040;-64
2023/03/22 03:47:33;;;;;;;23.13;16.20;;;;;;;9.12;100.00;162948.13;5072261;28;20028;-63
2023/03/22 03:49:58;;;;;;;29.27;17.95;;;;;;;9.12;100.00;162949.47;5070745;28;20037;-63
2023/03/22 03:52:24;;;;;;;20.40;16.55;;;;;;;9.13;100.00;162952.16;5072118;28;20117;-63
2023/03/22 03:54:50;;;;;;;17.85;14.30;;;;;;;9.13;100.00;162950.84;5070561;28;20094;-64
2023/03/22 03:57:15;;;;;;;24.55;16.48;;;;;;;9.14;100.00;162954.88;5072520;28;20021;-64
2023/03/22 03:59:41;;;;;;;28.98;16.02;;;;;;;9.10;100.00;162944.09;5070312;28;20426;-64
2023/03/22 04:02:06;;;;;;;21.60;16.95;;;;;;;9.09;100.00;162940.03;5072480;28;20024;-64
2023/03/22 04:04:33;;;;;;;24.42;14.85;;;;;;;9.09;100.00;162940.03;5070507;28;20025;-64
2023/03/22 04:07:01;;;;;;;34.13;16.98;;;;;;;9.08;100.00;162938.69;5071490;28;20024;-64
2023/03/22 04:09:36;;;;;;;18.00;14.75;;;;;;;9.14;100.00;162953.53;5070621;28;20123;-65
2023/03/22 04:12:01;;;;;;;22.98;15.20;;;;;;;9.14;100.00;162954.88;5071623;28;20040;-64
2023/03/22 04:14:27;;;;;;;20.63;16.25;;;;;;;9.19;100.00;162968.38;5070202;28;20031;-64
2023/03/22 04:16:53;;;;;;;24.48;16.50;;;;;;;9.20;100.00;162969.72;5072040;28;20036;-64
2023/03/22 04:19:19;;;;;;;26.00;15.73;;;;;;;9.24;100.00;162979.16;5069926;28;20076;-64
2023/03/22 04:21:45;;;;;;;18.10;15.05;;;;;;;9.19;100.00;162968.38;5071333;28;20052;-61
2023/03/22 04:24:11;;;;;;;16.67;14.07;;;;;;;9.18;100.00;162965.69;5071349;28;20089;-61
2023/03/22 04:26:36;;;;;;;21.35;14.48;;;;;;;9.10;100.00;162944.09;5070012;28;20047;-61
2023/03/22 04:29:02;;;;;;;26.15;13.90;;;;;;;9.10;100.00;162944.09;5070927;28;20107;-61
2023/03/22 04:31:29;;;;;;;20.40;14.20;;;;;;;9.12;100.00;162949.47;5070199;28;20033;-61
2023/03/22 04:33:55;;;;;;;20.80;15.15;;;;;;;9.05;100.00;162930.59;5070931;28;20051;-61
2023/03/22 04:36:22;;;;;;;25.13;12.85;;;;;;;9.05;100.00;162931.97;5069611;28;20040;-61
2023/03/22 04:38:48;;;;;;;16.05;13.27;;;;;;;9.04;100.00;162929.25;5071547;28;20052;-61
2023/03/22 04:41:13;;;;;;;16.10;14.05;;;;;;;9.08;100.00;162938.69;5069949;28;20325;-60
2023/03/22 04:43:39;;;;;;;23.80;13.07;;;;;;;9.04;100.00;162929.25;5070815;28;20029;-61
2023/03/22 04:46:08;;;;;;;16.95;13.57;;;;;;;8.96;100.00;162906.34;5069019;28;20043;-60
2023/03/22 04:48:38;;;;;;;18.17;12.60;;;;;;;8.95;100.00;162903.66;5070962;28;20094;-61
2023/03/22 04:51:04;;;;;;;14.82;11.60;;;;;;;8.85;100.00;162879.38;5069380;28;20044;-61
2023/03/22 04:53:30;;;;;;;21.40;13.52;;;;;;;8.74;100.00;162849.72;5071483;28;20020;-61
2023/03/22 04:55:55;;;;;;;19.33;13.05;;;;;;;8.79;100.00;162861.81;5069004;28;20128;-61
2023/03/22 04:58:22;;;;;;;16.15;12.50;;;;;;;8.71;100.00;162842.94;5070868;28;20024;-61
2023/03/22 05:00:48;;;;;;;22.17;13.23;;;;;;;8.66;100.00;162828.16;5069373;28;20535;-60
2023/03/22 05:03:17;;;;;;;18.50;12.35;;;;;;;8.70;100.00;162838.91;5052525;28;20078;-59
2023/03/22 05:05:52;;;;;;;14.20;12.20;;;;;;;8.66;100.00;162828.16;5067236;28;20045;-62
2023/03/22 05:08:18;;;;;;;19.20;13.15;;;;;;;8.68;100.00;162833.50;5070865;28;20029;-62
2023/03/22 05:10:44;;;;;;;18.77;11.82;;;;;;;8.74;100.00;162849.72;5069040;28;20428;-61
2023/03/22 05:13:09;;;;;;;27.63;13.27;;;;;;;8.78;100.00;162859.16;5069918;28;20028;-62
2023/03/22 05:15:37;;;;;;;17.15;11.50;;;;;;;8.75;100.00;162851.06;5068204;28;20848;-61
2023/03/22 05:18:03;;;;;;;15.13;11.75;;;;;;;8.77;100.00;162856.47;5070408;28;20024;-61
2023/03/22 05:20:28;;;;;;;18.10;10.98;;;;;;;8.72;100.00;162844.31;5069094;28;20404;-61
2023/03/22 05:22:56;;;;;;;13.52;10.00;;;;;;;8.67;100.00;162830.84;5070735;28;20021;-62
2023/03/22 05:25:21;;;;;;;19.15;10.88;;;;;;;8.71;100.00;162841.63;5067212;28;20036;-62
2023/03/22 05:27:49;;;;;;;16.45;12.38;;;;;;;8.70;100.00;162838.91;5069359;28;20047;-62
2023/03/22 05:30:15;;;;;;;16.25;12.10;;;;;;;8.65;100.00;162825.44;5069316;28;20047;-61
2023/03/22 05:32:42;;;;;;;16.60;11.60;;;;;;;8.64;100.00;162824.06;5070406;28;20107;-62
2023/03/22 05:35:08;;;;;;;17.85;11.20;;;;;;;8.62;100.00;162817.34;5069048;28;20116;-62
2023/03/22 05:37:34;;;;;;;12.80;10.55;;;;;;;8.56;100.00;162802.53;5070756;28;20465;-61
2023/03/22 05:39:59;;;;;;;13.02;10.10;;;;;;;8.62;100.00;162817.34;5068830;28;20041;-59
2023/03/22 05:42:25;;;;;;;19.70;10.90;;;;;;;8.66;100.00;162828.16;5070701;28;20035;-58
2023/03/22 05:44:51;;;;;;;12.75;8.60;;;;;;;8.70;100.00;162840.28;5069109;28;20068;-59
2023/03/22 05:47:16;;;;;;;27.20;12.55;;;;;;;8.73;100.00;162847.03;5070607;28;20020;-59
2023/03/22 05:49:41;;;;;;;14.82;9.52;;;;;;;8.75;100.00;162851.06;5068594;28;20052;-59
2023/03/22 05:52:06;;;;;;;14.23;9.18;;;;;;;8.75;100.00;162851.06;5070509;28;20028;-59
2023/03/22 05:54:32;;;;;;;13.38;8.18;;;;;;;8.72;100.00;162844.31;5068956;28;20043;-59
2023/03/22 05:56:57;;;;;;;15.13;8.10;;;;;;;8.71;100.00;162841.63;5070219;28;20012;-59
2023/03/22 05:59:23;;;;;;;13.73;9.15;;;;;;;8.79;100.00;162863.19;5069364;28;20082;-59
2023/03/22 06:01:48;;;;;;;11.50;7.90;;;;;;;8.82;100.00;162869.94;5070316;28;20430;-59
2023/03/22 06:04:13;;;;;;;14.63;7.95;;;;;;;8.83;100.00;162873.94;5070147;28;20025;-59
2023/03/22 06:06:40;;;;;;;7.97;7.15;;;;;;;8.88;100.00;162886.09;5062530;28;20041;-60
2023/03/22 06:09:06;;;;;;;13.38;7.72;;;;;;;8.89;100.00;162890.19;5059887;28;20016;-59
2023/03/22 06:11:34;;;;;;;16.25;9.05;;;;;;;8.81;100.00;162868.59;5051140;28;20041;-58
2023/03/22 06:13:59;;;;;;;13.03;7.67;;;;;;;8.88;100.00;162887.47;5050237;28;20269;-61
2023/03/22 06:16:24;;;;;;;13.73;8.52;;;;;;;8.85;100.00;162879.38;5048929;28;20041;-61
2023/03/22 06:18:50;;;;;;;15.80;7.95;;;;;;;8.85;100.00;162878.03;5049883;28;20041;-61
2023/03/22 06:21:15;;;;;;;17.77;7.68;;;;;;;8.81;100.00;162868.59;5048936;28;20454;-61
2023/03/22 06:23:42;;;;;;;11.45;8.20;;;;;;;8.78;100.00;162860.50;5050376;28;20025;-61
2023/03/22 06:26:10;;;;;;;11.60;7.30;;;;;;;8.80;100.00;162865.91;5048503;28;20037;-61
2023/03/22 06:28:35;;;;;;;8.85;7.75;;;;;;;8.78;100.00;162860.50;5050591;28;20028;-61
2023/03/22 06:31:06;;;;;;;15.77;7.50;;;;;;;8.83;100.00;162873.94;5048499;28;20049;-61
2023/03/22 06:33:31;;;;;;;9.07;6.60;;;;;;;8.83;100.00;162873.94;5049737;28;20064;-61
2023/03/22 06:35:58;;;;;;;19.30;7.00;;;;;;;8.81;100.00;162868.59;5048536;28;20040;-61
2023/03/22 06:38:24;;;;;;;9.68;6.30;;;;;;;8.79;100.00;162863.19;5050674;28;20021;-61
2023/03/22 06:40:49;;;;;;;15.18;7.53;;;;;;;8.80;100.00;162864.53;5050518;28;20041;-61
2023/03/22 06:43:14;;;;;;;8.65;6.85;;;;;;;8.78;100.00;162860.50;5069851;28;20036;-61
2023/03/22 06:45:40;;;;;;;12.55;6.72;;;;;;;8.74;100.00;162849.72;5068404;28;20033;-61
2023/03/22 06:48:05;;;;;;;11.98;6.93;;;;;;;8.70;100.00;162840.28;5069844;28;20029;-62
2023/03/22 06:50:31;;;;;;;12.38;6.90;;;;;;;8.71;100.00;162842.94;5067595;28;20048;-61
2023/03/22 06:52:56;;;;;;;8.35;5.57;;;;;;;8.77;100.00;162857.78;5073426;28;20073;-61
2023/03/22 06:55:21;;;;;;;13.82;7.72;;;;;;;8.82;100.00;162871.31;5071701;28;20052;-61
2023/03/22 06:57:47;;;;;;;8.73;5.00;;;;;;;8.90;100.00;162891.50;5072882;28;20020;-60
2023/03/22 07:00:13;;;;;;;18.25;8.00;;;;;;;9.09;100.00;162941.41;5071850;28;20044;-61
2023/03/22 07:02:38;;;;;;;21.58;7.15;;;;;;;9.24;100.00;162979.16;5073491;28;20024;-61
2023/03/22 07:05:04;;;;;;;9.43;7.32;;;;;;;9.38;100.00;163015.59;5071151;28;20044;-60
2023/03/22 07:07:29;;;;;;;8.00;5.28;;;;;;;9.40;100.00;163022.31;5072918;28;20052;-59
2023/03/22 07:09:55;;;;;;;10.15;5.85;;;;;;;9.36;100.00;163012.88;5071630;28;20044;-60
2023/03/22 07:12:21;;;;;;;9.88;4.65;;;;;;;9.33;100.00;163003.44;5067677;28;20100;-60
2023/03/22 07:14:46;;;;;;;13.07;4.47;;;;;;;9.33;100.00;163003.44;5066309;28;20625;-60
2023/03/22 07:17:13;;;;;;;18.08;6.22;;;;;;;9.29;100.00;162992.63;5052823;28;20029;-60
2023/03/22 07:19:39;;;;;;;24.38;7.10;;;;;;;9.27;100.00;162988.59;5054219;28;20050;-60
2023/03/22 07:22:04;;;;;;;8.30;6.35;;;;;;;9.29;100.00;162992.63;5072639;28;20024;-60
2023/03/22 07:24:30;;;;;;;18.67;7.20;;;;;;;9.37;100.00;163014.22;5071199;28;20021;-60
2023/03/22 07:26:55;;;;;;;13.98;5.05;;;;;;;9.56;100.00;163062.78;5072408;28;20072;-60
2023/03/22 07:29:20;;;;;;;14.80;5.65;;;;;;;9.75;100.00;163112.72;5068311;28;20404;-60
2023/03/22 07:31:46;;;;;;;8.27;5.25;;;;;;;10.07;100.00;163197.69;5052241;28;20047;-60
2023/03/22 07:34:11;;;;;;;10.20;4.10;;;;;;;10.28;100.00;163253.00;5066944;28;20078;-59
2023/03/22 07:36:37;;;;;;;17.13;6.18;;;;;;;10.56;100.00;163324.59;5071071;28;20063;-60
2023/03/22 07:39:04;;;;;;;8.43;4.43;;;;;;;10.83;100.00;163394.81;5070934;28;20009;-60
2023/03/22 07:41:30;;;;;;;6.82;4.30;;;;;;;11.03;100.00;163448.81;5068262;28;20067;-60
2023/03/22 07:43:55;;;;;;;7.78;5.15;;;;;;;11.23;100.00;163500.09;5071587;28;20066;-60
2023/03/22 07:46:20;;;;;;;6.80;4.07;;;;;;;11.13;100.00;163473.13;5061595;28;20498;-60
2023/03/22 07:48:45;;;;;;;9.77;5.88;;;;;;;10.89;100.00;163411.00;5065267;28;20391;-60
2023/03/22 07:51:11;;;;;;;7.60;4.05;;;;;;;10.63;100.00;163343.50;5064887;28;20090;-60
2023/03/22 07:53:36;;;;;;;6.45;3.78;;;;;;;10.37;100.00;163276.03;5056357;28;20048;-60
2023/03/22 07:56:05;;;;;;;14.02;4.65;;;;;;;10.52;100.00;163315.13;5066443;28;20044;-60
2023/03/22 07:58:30;;;;;;;8.90;3.88;;;;;;;10.63;100.00;163343.50;5058492;28;20012;-60
2023/03/22 08:00:57;;;;;;;10.20;4.50;;;;;;;10.73;100.00;163370.50;5060247;28;20467;-59
2023/03/22 08:03:22;;;;;;;4.65;4.00;;;;;;;10.82;100.00;163392.09;5065115;28;20025;-60
2023/03/22 08:05:48;;;;;;;10.35;4.10;;;;;;;10.90;100.00;163415.03;5052842;28;20041;-60
2023/03/22 08:08:13;;;;;;;6.65;3.97;;;;;;;10.84;100.00;163397.47;5051828;28;20086;-60
2023/03/22 08:10:38;;;;;;;15.38;6.18;;;;;;;10.73;100.00;163370.50;5050093;28;20128;-60
2023/03/22 08:13:04;;;;;;;8.13;3.70;;;;;;;10.72;100.00;163367.78;5051657;28;20029;-60
2023/03/22 08:15:30;;;;;;;10.52;4.07;;;;;;;10.70;100.00;163362.38;5060312;28;20051;-60
2023/03/22 08:17:59;;;;;;;9.25;5.35;;;;;;;10.66;100.00;163351.59;5070918;28;20023;-60
2023/03/22 08:20:26;;;;;;;12.18;5.03;;;;;;;10.65;100.00;163347.56;5070231;28;20039;-60
2023/03/22 08:22:52;;;;;;;8.80;4.32;;;;;;;10.60;100.00;163335.41;5068898;28;20085;-60
2023/03/22 08:25:17;;;;;;;9.57;4.53;;;;;;;10.46;100.00;163300.28;5070006;28;20044;-60
2023/03/22 08:27:42;;;;;;;15.35;5.68;;;;;;;10.45;100.00;163297.63;5055705;28;20017;-60
2023/03/22 08:30:08;;;;;;;9.95;4.57;;;;;;;10.44;100.00;163294.91;5066803;28;20040;-60
2023/03/22 08:32:34;;;;;;;9.40;3.97;;;;;;;10.51;100.00;163312.44;5057118;28;20048;-60
2023/03/22 08:34:59;;;;;;;12.18;5.05;;;;;;;10.53;100.00;163316.53;5059986;28;20040;-60
2023/03/22 08:37:25;;;;;;;8.55;4.00;;;;;;;10.75;100.00;163375.91;5051325;28;20021;-60
2023/03/22 08:39:50;;;;;;;8.85;4.78;;;;;;;11.10;100.00;163467.72;5052566;28;20049;-60
2023/03/22 08:42:15;;;;;;;11.45;4.32;;;;;;;11.33;100.00;163527.13;5067329;28;20024;-60
2023/03/22 08:44:41;;;;;;;5.60;4.47;;;;;;;11.43;100.00;163554.09;5068517;28;20097;-60
2023/03/22 08:47:06;;;;;;;8.38;4.60;;;;;;;11.53;100.00;163578.41;5066526;28;20025;-60
2023/03/22 08:49:31;;;;;;;14.40;4.40;;;;;;;11.74;100.00;163635.16;5057232;28;20486;-60
2023/03/22 08:51:57;;;;;;;19.83;4.20;;;;;;;11.81;100.00;163651.34;5048384;28;20032;-60
2023/03/22 08:54:22;;;;;;;16.17;5.40;;;;;;;11.60;100.00;163597.31;5049224;28;20021;-60
2023/03/22 08:56:49;;;;;;;8.02;4.63;;;;;;;11.35;100.00;163532.53;5050814;28;20027;-60
2023/03/22 08:59:14;;;;;;;11.75;5.60;;;;;;;11.09;100.00;163465.00;5051146;28;20020;-60
2023/03/22 09:01:40;;;;;;;8.27;4.72;;;;;;;10.98;100.00;163435.31;5048908;28;20469;-60
2023/03/22 09:04:05;;;;;;;9.75;4.30;;;;;;;10.96;100.00;163429.91;5050663;28;20396;-60
2023/03/22 09:06:31;;;;;;;14.85;5.60;;;;;;;10.85;100.00;163400.19;5062224;28;20037;-60
2023/03/22 09:08:56;;;;;;;11.55;5.45;;;;;;;10.76;100.00;163378.56;5059556;28;20030;-60
2023/03/22 09:11:22;;;;;;;9.07;4.97;;;;;;;10.77;100.00;163381.28;5056617;28;20036;-60
2023/03/22 09:13:49;;;;;;;17.30;6.18;;;;;;;10.68;100.00;163355.63;5066175;28;20028;-60
2023/03/22 09:16:15;;;;;;;8.32;4.05;;;;;;;10.75;100.00;163375.91;5049096;28;20491;-59
2023/03/22 09:18:41;;;;;;;8.38;3.60;;;;;;;10.98;100.00;163433.94;5050552;28;20033;-60
2023/03/22 09:21:07;;;;;;;9.82;4.82;;;;;;;11.21;100.00;163494.69;5049205;28;20098;-60
2023/03/22 09:23:34;;;;;;;9.48;4.80;;;;;;;11.31;100.00;163521.72;5050287;28;20064;-60
2023/03/22 09:26:01;;;;;;;12.07;5.93;;;;;;;11.46;100.00;163560.91;5062768;28;20054;-60
2023/03/22 09:28:27;;;;;;;11.82;4.20;;;;;;;11.58;100.00;163591.91;5070519;28;20035;-60
2023/03/22 09:30:52;;;;;;;10.23;3.80;;;;;;;11.75;100.00;163636.53;5068914;28;20165;-60
2023/03/22 09:33:18;;;;;;;12.77;4.47;;;;;;;11.82;100.00;163654.06;5070163;28;20042;-60
2023/03/22 09:35:43;;;;;;;9.25;4.15;;;;;;;11.87;100.00;163668.94;5068724;28;20041;-60
2023/03/22 09:38:11;;;;;;;10.85;3.45;;;;;;;12.13;100.00;163735.16;5070362;28;20029;-60
2023/03/22 09:40:42;;;;;;;12.55;4.43;;;;;;;12.36;100.00;163797.34;5068581;28;20036;-60
2023/03/22 09:43:10;;;;;;;16.75;6.15;;;;;;;12.45;100.00;163818.97;5070599;28;20027;-60
2023/03/22 09:45:41;;;;;;;12.02;4.38;;;;;;;12.47;100.00;163824.38;5068832;28;20068;-60
2023/03/22 09:48:18;;;;;;;11.02;4.70;;;;;;;12.44;100.00;163816.25;5070040;28;20418;-60
2023/03/22 09:50:52;;;;;;;7.57;3.55;;;;;;;12.42;100.00;163812.22;5068782;28;20040;-60
2023/03/22 09:53:19;;;;;;;7.78;3.90;;;;;;;12.36;100.00;163797.34;5069592;28;20503;-60
2023/03/22 09:55:54;;;;;;;11.70;3.97;;;;;;;12.47;100.00;163824.38;5065260;28;20457;-60
2023/03/22 09:58:34;;;;;;;13.45;4.90;;;;;;;12.53;100.00;163841.91;5060467;28;20020;-60
2023/03/22 10:01:15;;;;;;;10.52;4.65;;;;;;;12.49;100.00;163829.75;5060122;28;20510;-60
2023/03/22 10:04:17;;;;;;;10.95;3.75;;;;;;;12.48;100.00;163827.03;5061805;28;20066;-60
2023/03/22 10:06:49;;;;;;;8.00;3.97;;;;;;;12.32;100.00;163785.16;5033466;28;20056;-60
2023/03/22 10:09:47;;;;;;;13.20;4.80;;;;;;;12.34;100.00;163791.91;5045891;28;20029;-60
2023/03/22 10:12:22;;;;;;;8.73;4.13;;;;;;;12.28;100.00;163775.72;5021255;28;20049;-60
2023/03/22 10:15:12;;;;;;;19.40;3.92;;;;;;;12.27;100.00;163771.66;5045517;28;20055;-60
2023/03/22 10:17:41;;;;;;;5.90;3.13;;;;;;;12.18;100.00;163748.66;5065733;28;20036;-60
2023/03/22 10:20:11;;;;;;;;;;;;;;;12.24;100.00;163764.91;5068938;28;20499;-60
2023/03/22 10:22:41;;;;;;;10.90;4.28;;;;;;;12.14;100.00;163739.22;5069789;28;19908;-60
2023/03/22 10:25:08;;;;;;;13.25;4.15;;;;;;;12.24;100.00;163764.91;5069589;28;20045;-60
2023/03/22 10:27:35;;;;;;;13.88;5.10;;;;;;;12.30;100.00;163781.13;5073606;28;20124;-60
2023/03/22 10:30:20;;;;;;;5.93;4.05;;;;;;;12.27;100.00;163773.00;5072050;28;20040;-60
2023/03/22 10:32:59;;;;;;;6.80;4.22;;;;;;;12.25;100.00;163767.59;5057051;28;20013;-60
2023/03/22 10:35:24;;;;;;;14.52;3.53;;;;;;;12.21;100.00;163756.78;5063661;28;20492;-60
2023/03/22 10:37:51;;;;;;;7.35;3.38;;;;;;;11.96;100.00;163691.88;5064930;28;20112;-60
2023/03/22 10:40:22;;;;;;;12.60;3.85;;;;;;;11.95;100.00;163687.84;5057128;28;20115;-60
2023/03/22 10:42:55;;;;;;;15.48;4.75;;;;;;;11.73;100.00;163632.44;5038062;28;20078;-60
2023/03/22 10:45:26;;;;;;;6.25;3.10;;;;;;;11.62;100.00;163602.75;5061017;28;20200;-60
2023/03/22 10:48:15;;;;;;;14.68;5.72;;;;;;;11.62;100.00;163602.75;5073501;28;20383;-60
2023/03/22 10:50:43;;;;;;;9.85;3.95;;;;;;;11.58;100.00;163593.28;5072254;28;20154;-60
2023/03/22 10:53:30;;;;;;;4.90;2.60;;;;;;;11.52;100.00;163575.72;5073005;28;20073;-61
2023/03/22 10:55:56;;;;;;;12.10;4.90;;;;;;;11.52;100.00;163575.72;5064923;28;20045;-64
2023/03/22 10:58:27;;;;;;;12.50;4.13;;;;;;;11.52;100.00;163575.72;5053864;28;20027;-61
2023/03/22 11:00:56;;;;;;;9.98;4.20;;;;;;;11.48;100.00;163564.94;5051667;28;20055;-61
2023/03/22 11:03:41;;;;;;;6.20;3.40;;;;;;;11.48;100.00;163564.94;5053205;28;20044;-62
2023/03/22 11:06:36;;;;;;;12.45;5.82;;;;;;;11.43;100.00;163554.09;5051803;28;20052;-62
2023/03/22 11:09:20;;;;;;;12.02;3.95;;;;;;;11.40;100.00;163546.03;5051155;28;20395;-61
2023/03/22 11:11:57;;;;;;;10.07;4.45;;;;;;;11.29;100.00;163514.97;5045709;28;20041;-62
2023/03/22 11:14:40;;;;;;;4.22;3.50;;;;;;;11.21;100.00;163494.69;5052453;28;20103;-62
2023/03/22 11:17:12;;;;;;;13.35;3.70;;;;;;;11.17;100.00;163485.22;5053259;28;20105;-61
2023/03/22 11:19:40;;;;;;;12.27;3.85;;;;;;;11.10;100.00;163467.72;5052051;28;20083;-62
2023/03/22 11:22:22;;;;;;;15.68;6.10;;;;;;;10.97;100.00;163432.63;5072056;28;20032;-62
2023/03/22 11:24:50;;;;;;;6.43;3.63;;;;;;;10.83;100.00;163396.13;5071109;28;20120;-62